sensor_id;sensor_type;location;lat;lon;timestamp;temperature;humidity
11204;DHT22;5659;49.408;11.116;2023-04-03T00:01:32;2.70;99.90
11204;DHT22;5659;49.408;11.116;2023-04-03T00:03:57;2.70;99.90
11204;DHT22;5659;49.408;11.116;2023-04-03T00:06:24;2.70;99.90
11204;DHT22;5659;49.408;11.116;2023-04-03T00:08:50;2.70;99.90
11204;DHT22;5659;49.408;11.116;2023-04-03T00:11:16;2.70;99.90
11204;DHT22;5659;49.408;11.116;2023-04-03T00:13:42;2.70;99.90
11204;DHT22;5659;49.408;11.116;2023-04-03T00:16:09;2.70;99.90
11204;DHT22;5659;49.408;11.116;2023-04-03T00:18:36;2.60;99.90
11204;DHT22;5659;49.408;11.116;2023-04-03T00:21:02;2.50;99.90
11204;DHT22;5659;49.408;11.116;2023-04-03T00:23:28;2.60;99.90
11204;DHT22;5659;49.408;11.116;2023-04-03T00:25:54;2.50;99.90
11204;DHT22;5659;49.408;11.116;2023-04-03T00:28:20;2.50;99.90
11204;DHT22;5659;49.408;11.116;2023-04-03T00:30:45;2.50;99.90
11204;DHT22;5659;49.408;11.116;2023-04-03T00:33:12;2.50;99.90
11204;DHT22;5659;49.408;11.116;2023-04-03T00:35:38;2.50;99.90
11204;DHT22;5659;49.408;11.116;2023-04-03T00:38:03;2.50;99.90
11204;DHT22;5659;49.408;11.116;2023-04-03T00:40:34;2.40;99.90
11204;DHT22;5659;49.408;11.116;2023-04-03T00:42:59;2.40;99.90
11204;DHT22;5659;49.408;11.116;2023-04-03T00:45:32;2.40;99.90
11204;DHT22;5659;49.408;11.116;2023-04-03T00:47:59;2.50;99.90
11204;DHT22;5659;49.408;11.116;2023-04-03T00:50:27;2.30;99.90
11204;DHT22;5659;49.408;11.116;2023-04-03T00:52:54;2.30;99.90
11204;DHT22;5659;49.408;11.116;2023-04-03T00:55:21;2.40;99.90
11204;DHT22;5659;49.408;11.116;2023-04-03T00:57:47;2.40;99.90
11204;DHT22;5659;49.408;11.116;2023-04-03T01:00:16;2.30;99.90
11204;DHT22;5659;49.408;11.116;2023-04-03T01:02:45;2.40;99.90
11204;DHT22;5659;49.408;11.116;2023-04-03T01:05:11;2.40;99.90
11204;DHT22;5659;49.408;11.116;2023-04-03T01:07:38;2.40;99.90
11204;DHT22;5659;49.408;11.116;2023-04-03T01:10:08;2.40;99.90
11204;DHT22;5659;49.408;11.116;2023-04-03T01:12:37;2.50;99.90
11204;DHT22;5659;49.408;11.116;2023-04-03T01:15:07;2.30;99.90
11204;DHT22;5659;49.408;11.116;2023-04-03T01:17:39;2.50;99.90
11204;DHT22;5659;49.408;11.116;2023-04-03T01:25:26;2.60;99.90
11204;DHT22;5659;49.408;11.116;2023-04-03T01:27:52;2.40;99.90
11204;DHT22;5659;49.408;11.116;2023-04-03T01:30:20;2.50;99.90
11204;DHT22;5659;49.408;11.116;2023-04-03T01:32:46;2.50;99.90
11204;DHT22;5659;49.408;11.116;2023-04-03T01:35:12;2.40;99.90
11204;DHT22;5659;49.408;11.116;2023-04-03T01:37:38;2.40;99.90
11204;DHT22;5659;49.408;11.116;2023-04-03T01:40:04;2.40;99.90
11204;DHT22;5659;49.408;11.116;2023-04-03T01:42:31;2.40;99.90
11204;DHT22;5659;49.408;11.116;2023-04-03T01:44:56;2.30;99.90
11204;DHT22;5659;49.408;11.116;2023-04-03T01:47:22;2.20;99.90
11204;DHT22;5659;49.408;11.116;2023-04-03T01:49:48;2.30;99.90
11204;DHT22;5659;49.408;11.116;2023-04-03T01:52:13;2.30;99.90
11204;DHT22;5659;49.408;11.116;2023-04-03T01:54:39;2.10;99.90
11204;DHT22;5659;49.408;11.116;2023-04-03T01:57:04;2.20;99.90
11204;DHT22;5659;49.408;11.116;2023-04-03T01:59:30;2.10;99.90
11204;DHT22;5659;49.408;11.116;2023-04-03T02:01:56;2.20;99.90
11204;DHT22;5659;49.408;11.116;2023-04-03T02:04:22;2.20;99.90
11204;DHT22;5659;49.408;11.116;2023-04-03T02:06:47;2.10;99.90
11204;DHT22;5659;49.408;11.116;2023-04-03T02:09:13;2.00;99.90
11204;DHT22;5659;49.408;11.116;2023-04-03T02:11:39;2.00;99.90
11204;DHT22;5659;49.408;11.116;2023-04-03T02:14:04;2.00;99.90
11204;DHT22;5659;49.408;11.116;2023-04-03T02:16:30;2.00;99.90
11204;DHT22;5659;49.408;11.116;2023-04-03T02:18:56;1.90;99.90
11204;DHT22;5659;49.408;11.116;2023-04-03T02:21:22;1.90;99.90
11204;DHT22;5659;49.408;11.116;2023-04-03T02:23:47;2.20;99.90
11204;DHT22;5659;49.408;11.116;2023-04-03T02:26:14;1.80;99.90
11204;DHT22;5659;49.408;11.116;2023-04-03T02:28:40;1.70;99.90
11204;DHT22;5659;49.408;11.116;2023-04-03T02:31:07;1.70;99.90
11204;DHT22;5659;49.408;11.116;2023-04-03T02:33:33;1.60;99.90
11204;DHT22;5659;49.408;11.116;2023-04-03T02:35:59;1.50;99.90
11204;DHT22;5659;49.408;11.116;2023-04-03T02:38:25;1.50;99.90
11204;DHT22;5659;49.408;11.116;2023-04-03T02:40:51;1.40;99.90
11204;DHT22;5659;49.408;11.116;2023-04-03T02:43:17;1.40;99.90
11204;DHT22;5659;49.408;11.116;2023-04-03T02:45:43;1.40;99.90
11204;DHT22;5659;49.408;11.116;2023-04-03T02:48:08;1.40;99.90
11204;DHT22;5659;49.408;11.116;2023-04-03T02:50:34;1.50;99.90
11204;DHT22;5659;49.408;11.116;2023-04-03T02:53:00;1.50;99.90
11204;DHT22;5659;49.408;11.116;2023-04-03T02:55:25;1.40;99.90
11204;DHT22;5659;49.408;11.116;2023-04-03T02:57:51;1.30;99.90
11204;DHT22;5659;49.408;11.116;2023-04-03T03:00:17;1.30;99.90
11204;DHT22;5659;49.408;11.116;2023-04-03T03:02:43;1.20;99.90
11204;DHT22;5659;49.408;11.116;2023-04-03T03:05:08;1.20;99.90
11204;DHT22;5659;49.408;11.116;2023-04-03T03:07:34;1.20;99.90
11204;DHT22;5659;49.408;11.116;2023-04-03T03:10:00;1.10;99.90
11204;DHT22;5659;49.408;11.116;2023-04-03T03:12:25;1.20;99.90
11204;DHT22;5659;49.408;11.116;2023-04-03T03:14:51;1.00;99.90
11204;DHT22;5659;49.408;11.116;2023-04-03T03:17:17;1.10;99.90
11204;DHT22;5659;49.408;11.116;2023-04-03T03:19:43;1.10;99.90
11204;DHT22;5659;49.408;11.116;2023-04-03T03:22:09;0.90;99.90
11204;DHT22;5659;49.408;11.116;2023-04-03T03:24:34;0.90;99.90
11204;DHT22;5659;49.408;11.116;2023-04-03T03:27:00;0.90;99.90
11204;DHT22;5659;49.408;11.116;2023-04-03T03:29:26;0.90;99.90
11204;DHT22;5659;49.408;11.116;2023-04-03T03:31:52;0.80;99.90
11204;DHT22;5659;49.408;11.116;2023-04-03T03:34:17;0.70;99.90
11204;DHT22;5659;49.408;11.116;2023-04-03T03:36:43;0.80;99.90
11204;DHT22;5659;49.408;11.116;2023-04-03T03:39:09;0.70;99.90
11204;DHT22;5659;49.408;11.116;2023-04-03T03:41:35;1.00;99.90
11204;DHT22;5659;49.408;11.116;2023-04-03T03:44:00;0.90;99.90
11204;DHT22;5659;49.408;11.116;2023-04-03T03:46:26;0.70;99.90
11204;DHT22;5659;49.408;11.116;2023-04-03T03:48:51;0.70;99.90
11204;DHT22;5659;49.408;11.116;2023-04-03T03:51:17;0.70;99.90
11204;DHT22;5659;49.408;11.116;2023-04-03T03:53:43;0.70;99.90
11204;DHT22;5659;49.408;11.116;2023-04-03T03:56:08;0.60;99.90
11204;DHT22;5659;49.408;11.116;2023-04-03T03:58:34;0.60;99.90
11204;DHT22;5659;49.408;11.116;2023-04-03T04:01:06;0.50;99.90
11204;DHT22;5659;49.408;11.116;2023-04-03T04:03:32;0.50;99.90
11204;DHT22;5659;49.408;11.116;2023-04-03T04:05:58;0.40;99.90
11204;DHT22;5659;49.408;11.116;2023-04-03T05:36:31;1.00;99.90
11204;DHT22;5659;49.408;11.116;2023-04-03T05:38:57;1.00;99.90
11204;DHT22;5659;49.408;11.116;2023-04-03T05:41:23;1.20;99.90
11204;DHT22;5659;49.408;11.116;2023-04-03T05:43:49;1.20;99.90
11204;DHT22;5659;49.408;11.116;2023-04-03T05:46:16;1.30;99.90
11204;DHT22;5659;49.408;11.116;2023-04-03T05:48:43;1.40;99.90
11204;DHT22;5659;49.408;11.116;2023-04-03T05:51:15;1.40;99.90
11204;DHT22;5659;49.408;11.116;2023-04-03T05:53:41;1.50;99.90
11204;DHT22;5659;49.408;11.116;2023-04-03T05:56:08;1.50;99.90
11204;DHT22;5659;49.408;11.116;2023-04-03T05:58:33;1.60;99.90
11204;DHT22;5659;49.408;11.116;2023-04-03T06:00:59;1.80;99.90
11204;DHT22;5659;49.408;11.116;2023-04-03T06:03:25;1.80;99.90
11204;DHT22;5659;49.408;11.116;2023-04-03T06:05:51;1.90;99.90
11204;DHT22;5659;49.408;11.116;2023-04-03T06:08:17;2.00;99.90
11204;DHT22;5659;49.408;11.116;2023-04-03T06:10:42;1.90;99.90
11204;DHT22;5659;49.408;11.116;2023-04-03T06:13:08;2.10;99.90
11204;DHT22;5659;49.408;11.116;2023-04-03T06:15:33;2.10;99.90
11204;DHT22;5659;49.408;11.116;2023-04-03T06:47:21;3.10;99.90
11204;DHT22;5659;49.408;11.116;2023-04-03T11:28:43;9.00;99.90
